sensor_id;sensor_type;location;lat;lon;timestamp;P1;durP1;ratioP1;P2;durP2;ratioP2
22268;SDS011;11303;50.772;19.670;2023-01-24T00:01:27;138.57;;;48.65;;
22268;SDS011;11303;50.772;19.670;2023-01-24T00:03:28;140.75;;;46.60;;
22268;SDS011;11303;50.772;19.670;2023-01-24T00:05:32;118.72;;;37.53;;
22268;SDS011;11303;50.772;19.670;2023-01-24T00:07:34;130.05;;;39.17;;
22268;SDS011;11303;50.772;19.670;2023-01-24T00:09:36;111.70;;;36.50;;
22268;SDS011;11303;50.772;19.670;2023-01-24T00:11:37;132.88;;;43.95;;
22268;SDS011;11303;50.772;19.670;2023-01-24T00:13:39;136.55;;;42.92;;
22268;SDS011;11303;50.772;19.670;2023-01-24T00:15:41;123.97;;;41.47;;
22268;SDS011;11303;50.772;19.670;2023-01-24T00:17:43;147.88;;;50.60;;
22268;SDS011;11303;50.772;19.670;2023-01-24T00:19:44;82.88;;;29.60;;
22268;SDS011;11303;50.772;19.670;2023-01-24T00:21:46;93.97;;;32.08;;
22268;SDS011;11303;50.772;19.670;2023-01-24T00:23:48;110.03;;;36.67;;
22268;SDS011;11303;50.772;19.670;2023-01-24T00:25:52;114.15;;;41.83;;
22268;SDS011;11303;50.772;19.670;2023-01-24T00:27:53;116.88;;;39.90;;
22268;SDS011;11303;50.772;19.670;2023-01-24T00:29:55;86.70;;;30.10;;
22268;SDS011;11303;50.772;19.670;2023-01-24T00:31:56;115.45;;;40.15;;
22268;SDS011;11303;50.772;19.670;2023-01-24T00:33:58;105.38;;;35.72;;
22268;SDS011;11303;50.772;19.670;2023-01-24T00:35:59;107.20;;;36.15;;
22268;SDS011;11303;50.772;19.670;2023-01-24T00:38:01;110.47;;;40.53;;
22268;SDS011;11303;50.772;19.670;2023-01-24T00:40:02;148.63;;;50.13;;
22268;SDS011;11303;50.772;19.670;2023-01-24T00:42:04;97.82;;;32.47;;
22268;SDS011;11303;50.772;19.670;2023-01-24T00:44:06;89.90;;;28.73;;
22268;SDS011;11303;50.772;19.670;2023-01-24T00:46:08;114.20;;;39.67;;
22268;SDS011;11303;50.772;19.670;2023-01-24T00:48:10;96.47;;;31.75;;
22268;SDS011;11303;50.772;19.670;2023-01-24T00:50:12;74.93;;;25.58;;
22268;SDS011;11303;50.772;19.670;2023-01-24T00:52:14;84.10;;;30.25;;
22268;SDS011;11303;50.772;19.670;2023-01-24T00:54:15;121.13;;;42.90;;
22268;SDS011;11303;50.772;19.670;2023-01-24T00:56:17;75.97;;;27.38;;
22268;SDS011;11303;50.772;19.670;2023-01-24T00:58:18;117.10;;;46.63;;
22268;SDS011;11303;50.772;19.670;2023-01-24T01:00:20;122.63;;;48.22;;
22268;SDS011;11303;50.772;19.670;2023-01-24T01:02:22;106.07;;;40.75;;
22268;SDS011;11303;50.772;19.670;2023-01-24T01:04:24;102.68;;;38.70;;
22268;SDS011;11303;50.772;19.670;2023-01-24T01:06:25;106.38;;;37.28;;
22268;SDS011;11303;50.772;19.670;2023-01-24T01:08:27;114.03;;;42.50;;
22268;SDS011;11303;50.772;19.670;2023-01-24T01:10:28;109.05;;;37.05;;
22268;SDS011;11303;50.772;19.670;2023-01-24T01:12:30;96.15;;;35.22;;
22268;SDS011;11303;50.772;19.670;2023-01-24T01:14:32;112.57;;;39.83;;
22268;SDS011;11303;50.772;19.670;2023-01-24T01:16:33;113.30;;;37.50;;
22268;SDS011;11303;50.772;19.670;2023-01-24T01:18:38;92.50;;;32.00;;
22268;SDS011;11303;50.772;19.670;2023-01-24T01:20:40;100.97;;;35.08;;
22268;SDS011;11303;50.772;19.670;2023-01-24T01:22:42;107.70;;;39.17;;
22268;SDS011;11303;50.772;19.670;2023-01-24T01:24:44;100.45;;;34.53;;
22268;SDS011;11303;50.772;19.670;2023-01-24T01:26:45;137.90;;;47.70;;
22268;SDS011;11303;50.772;19.670;2023-01-24T01:28:47;108.18;;;37.63;;
22268;SDS011;11303;50.772;19.670;2023-01-24T01:30:52;128.57;;;43.97;;
22268;SDS011;11303;50.772;19.670;2023-01-24T01:32:54;119.97;;;42.40;;
22268;SDS011;11303;50.772;19.670;2023-01-24T01:34:55;105.35;;;38.20;;
22268;SDS011;11303;50.772;19.670;2023-01-24T01:36:57;110.47;;;38.72;;
22268;SDS011;11303;50.772;19.670;2023-01-24T01:38:59;80.97;;;28.90;;
22268;SDS011;11303;50.772;19.670;2023-01-24T01:41:00;94.35;;;31.80;;
22268;SDS011;11303;50.772;19.670;2023-01-24T01:43:02;100.38;;;34.15;;
22268;SDS011;11303;50.772;19.670;2023-01-24T01:45:50;113.40;;;37.63;;
22268;SDS011;11303;50.772;19.670;2023-01-24T01:47:34;93.70;;;32.47;;
22268;SDS011;11303;50.772;19.670;2023-01-24T01:49:37;96.57;;;35.28;;
22268;SDS011;11303;50.772;19.670;2023-01-24T01:51:45;69.10;;;24.55;;
22268;SDS011;11303;50.772;19.670;2023-01-24T01:53:51;130.23;;;43.40;;
22268;SDS011;11303;50.772;19.670;2023-01-24T01:55:59;121.70;;;39.33;;
22268;SDS011;11303;50.772;19.670;2023-01-24T01:58:06;95.80;;;31.50;;
22268;SDS011;11303;50.772;19.670;2023-01-24T02:00:09;107.22;;;39.35;;
22268;SDS011;11303;50.772;19.670;2023-01-24T02:02:14;110.40;;;37.83;;
22268;SDS011;11303;50.772;19.670;2023-01-24T02:04:16;117.22;;;41.92;;
22268;SDS011;11303;50.772;19.670;2023-01-24T02:08:45;117.13;;;42.55;;
22268;SDS011;11303;50.772;19.670;2023-01-24T02:10:48;120.03;;;40.47;;
22268;SDS011;11303;50.772;19.670;2023-01-24T02:13:10;124.05;;;42.05;;
22268;SDS011;11303;50.772;19.670;2023-01-24T02:15:13;121.20;;;40.83;;
22268;SDS011;11303;50.772;19.670;2023-01-24T02:17:36;102.38;;;35.35;;
22268;SDS011;11303;50.772;19.670;2023-01-24T02:19:57;105.63;;;38.17;;
22268;SDS011;11303;50.772;19.670;2023-01-24T02:22:10;110.25;;;38.63;;
22268;SDS011;11303;50.772;19.670;2023-01-24T02:24:26;97.90;;;37.72;;
22268;SDS011;11303;50.772;19.670;2023-01-24T02:26:36;89.18;;;30.30;;
22268;SDS011;11303;50.772;19.670;2023-01-24T02:28:40;115.57;;;40.25;;
22268;SDS011;11303;50.772;19.670;2023-01-24T02:30:50;103.57;;;36.95;;
22268;SDS011;11303;50.772;19.670;2023-01-24T02:32:51;108.32;;;34.47;;
22268;SDS011;11303;50.772;19.670;2023-01-24T02:34:53;106.85;;;37.63;;
22268;SDS011;11303;50.772;19.670;2023-01-24T02:36:55;95.57;;;32.53;;
22268;SDS011;11303;50.772;19.670;2023-01-24T02:39:04;121.07;;;41.88;;
22268;SDS011;11303;50.772;19.670;2023-01-24T02:41:11;101.82;;;35.80;;
22268;SDS011;11303;50.772;19.670;2023-01-24T02:43:14;117.18;;;39.78;;
22268;SDS011;11303;50.772;19.670;2023-01-24T02:45:25;109.13;;;36.30;;
22268;SDS011;11303;50.772;19.670;2023-01-24T02:47:30;126.22;;;46.60;;
22268;SDS011;11303;50.772;19.670;2023-01-24T02:49:34;113.13;;;39.08;;
22268;SDS011;11303;50.772;19.670;2023-01-24T02:51:36;104.50;;;34.63;;
22268;SDS011;11303;50.772;19.670;2023-01-24T02:53:57;103.22;;;36.42;;
22268;SDS011;11303;50.772;19.670;2023-01-24T02:55:59;88.82;;;29.90;;
22268;SDS011;11303;50.772;19.670;2023-01-24T02:58:21;129.75;;;47.70;;
22268;SDS011;11303;50.772;19.670;2023-01-24T03:00:23;135.07;;;47.28;;
22268;SDS011;11303;50.772;19.670;2023-01-24T03:02:25;111.43;;;40.75;;
22268;SDS011;11303;50.772;19.670;2023-01-24T03:04:27;166.93;;;80.72;;
22268;SDS011;11303;50.772;19.670;2023-01-24T03:06:28;109.18;;;38.33;;
22268;SDS011;11303;50.772;19.670;2023-01-24T03:08:31;87.03;;;30.95;;
22268;SDS011;11303;50.772;19.670;2023-01-24T03:10:34;112.72;;;38.28;;
22268;SDS011;11303;50.772;19.670;2023-01-24T03:12:36;136.57;;;47.42;;
22268;SDS011;11303;50.772;19.670;2023-01-24T03:14:56;104.82;;;37.40;;
22268;SDS011;11303;50.772;19.670;2023-01-24T03:17:16;140.63;;;46.78;;
22268;SDS011;11303;50.772;19.670;2023-01-24T03:19:36;127.13;;;44.40;;
22268;SDS011;11303;50.772;19.670;2023-01-24T03:21:56;129.50;;;42.17;;
22268;SDS011;11303;50.772;19.670;2023-01-24T03:24:16;135.98;;;47.13;;
22268;SDS011;11303;50.772;19.670;2023-01-24T03:26:36;112.80;;;40.33;;
22268;SDS011;11303;50.772;19.670;2023-01-24T03:28:56;135.10;;;47.20;;
22268;SDS011;11303;50.772;19.670;2023-01-24T03:31:16;141.55;;;45.83;;
22268;SDS011;11303;50.772;19.670;2023-01-24T03:33:36;124.28;;;41.38;;
22268;SDS011;11303;50.772;19.670;2023-01-24T03:35:57;126.10;;;40.60;;
22268;SDS011;11303;50.772;19.670;2023-01-24T03:38:03;104.15;;;34.33;;
22268;SDS011;11303;50.772;19.670;2023-01-24T03:40:23;120.75;;;38.95;;
22268;SDS011;11303;50.772;19.670;2023-01-24T03:42:25;143.02;;;45.78;;
22268;SDS011;11303;50.772;19.670;2023-01-24T03:44:27;147.88;;;56.60;;
22268;SDS011;11303;50.772;19.670;2023-01-24T03:46:30;125.38;;;41.35;;
22268;SDS011;11303;50.772;19.670;2023-01-24T03:48:32;123.72;;;41.67;;
22268;SDS011;11303;50.772;19.670;2023-01-24T03:50:39;131.30;;;42.33;;
22268;SDS011;11303;50.772;19.670;2023-01-24T03:53:03;130.68;;;42.05;;
22268;SDS011;11303;50.772;19.670;2023-01-24T03:55:06;135.45;;;43.00;;
22268;SDS011;11303;50.772;19.670;2023-01-24T03:57:09;142.52;;;43.70;;
22268;SDS011;11303;50.772;19.670;2023-01-24T03:59:10;132.32;;;41.30;;
22268;SDS011;11303;50.772;19.670;2023-01-24T04:01:12;147.50;;;50.72;;
22268;SDS011;11303;50.772;19.670;2023-01-24T04:03:15;230.85;;;96.82;;
22268;SDS011;11303;50.772;19.670;2023-01-24T04:05:16;163.82;;;53.63;;
22268;SDS011;11303;50.772;19.670;2023-01-24T04:07:18;137.18;;;48.78;;
22268;SDS011;11303;50.772;19.670;2023-01-24T04:09:27;201.02;;;83.55;;
22268;SDS011;11303;50.772;19.670;2023-01-24T04:11:28;121.20;;;38.92;;
22268;SDS011;11303;50.772;19.670;2023-01-24T04:13:30;117.65;;;37.22;;
22268;SDS011;11303;50.772;19.670;2023-01-24T04:15:32;153.27;;;50.13;;
22268;SDS011;11303;50.772;19.670;2023-01-24T04:17:34;188.38;;;63.17;;
22268;SDS011;11303;50.772;19.670;2023-01-24T04:19:35;163.82;;;55.92;;
22268;SDS011;11303;50.772;19.670;2023-01-24T04:21:37;145.70;;;50.15;;
22268;SDS011;11303;50.772;19.670;2023-01-24T04:23:38;142.05;;;47.25;;
22268;SDS011;11303;50.772;19.670;2023-01-24T04:25:40;134.20;;;44.60;;
22268;SDS011;11303;50.772;19.670;2023-01-24T04:27:41;149.60;;;52.38;;
22268;SDS011;11303;50.772;19.670;2023-01-24T04:29:44;157.90;;;52.63;;
22268;SDS011;11303;50.772;19.670;2023-01-24T04:31:45;169.13;;;53.95;;
22268;SDS011;11303;50.772;19.670;2023-01-24T04:33:47;183.43;;;61.70;;
22268;SDS011;11303;50.772;19.670;2023-01-24T04:35:49;143.30;;;49.00;;
22268;SDS011;11303;50.772;19.670;2023-01-24T04:37:50;217.63;;;81.30;;
22268;SDS011;11303;50.772;19.670;2023-01-24T04:39:52;165.48;;;62.50;;
22268;SDS011;11303;50.772;19.670;2023-01-24T04:41:54;158.90;;;57.22;;
22268;SDS011;11303;50.772;19.670;2023-01-24T04:43:55;180.95;;;64.55;;
22268;SDS011;11303;50.772;19.670;2023-01-24T04:45:57;142.60;;;47.15;;
22268;SDS011;11303;50.772;19.670;2023-01-24T04:47:59;144.07;;;46.75;;
22268;SDS011;11303;50.772;19.670;2023-01-24T04:50:01;152.15;;;53.33;;
22268;SDS011;11303;50.772;19.670;2023-01-24T04:52:02;158.23;;;55.60;;
22268;SDS011;11303;50.772;19.670;2023-01-24T04:54:04;167.68;;;57.45;;
22268;SDS011;11303;50.772;19.670;2023-01-24T04:56:06;191.35;;;66.95;;
22268;SDS011;11303;50.772;19.670;2023-01-24T04:58:08;151.45;;;53.17;;
22268;SDS011;11303;50.772;19.670;2023-01-24T05:00:10;162.43;;;50.72;;
22268;SDS011;11303;50.772;19.670;2023-01-24T05:02:12;166.30;;;51.53;;
22268;SDS011;11303;50.772;19.670;2023-01-24T05:04:13;226.80;;;63.78;;
22268;SDS011;11303;50.772;19.670;2023-01-24T05:06:15;159.40;;;49.78;;
22268;SDS011;11303;50.772;19.670;2023-01-24T05:08:17;189.90;;;56.53;;
22268;SDS011;11303;50.772;19.670;2023-01-24T05:10:19;143.57;;;42.25;;
22268;SDS011;11303;50.772;19.670;2023-01-24T05:12:22;142.98;;;43.22;;
22268;SDS011;11303;50.772;19.670;2023-01-24T05:14:24;160.88;;;47.17;;
22268;SDS011;11303;50.772;19.670;2023-01-24T05:16:25;122.95;;;37.35;;
22268;SDS011;11303;50.772;19.670;2023-01-24T05:18:27;141.93;;;46.42;;
22268;SDS011;11303;50.772;19.670;2023-01-24T05:20:28;147.70;;;49.53;;
22268;SDS011;11303;50.772;19.670;2023-01-24T05:22:30;134.63;;;44.63;;
22268;SDS011;11303;50.772;19.670;2023-01-24T05:24:32;161.27;;;54.20;;
22268;SDS011;11303;50.772;19.670;2023-01-24T05:26:33;153.82;;;52.38;;
22268;SDS011;11303;50.772;19.670;2023-01-24T05:28:35;156.50;;;54.70;;
22268;SDS011;11303;50.772;19.670;2023-01-24T05:30:37;115.22;;;34.53;;
22268;SDS011;11303;50.772;19.670;2023-01-24T05:32:38;107.57;;;35.13;;
22268;SDS011;11303;50.772;19.670;2023-01-24T05:34:40;115.82;;;36.30;;
22268;SDS011;11303;50.772;19.670;2023-01-24T05:36:42;134.85;;;45.22;;
22268;SDS011;11303;50.772;19.670;2023-01-24T05:38:43;161.48;;;51.10;;
22268;SDS011;11303;50.772;19.670;2023-01-24T05:40:45;121.97;;;38.78;;
22268;SDS011;11303;50.772;19.670;2023-01-24T05:42:47;75.28;;;24.90;;
22268;SDS011;11303;50.772;19.670;2023-01-24T05:44:48;138.02;;;44.65;;
22268;SDS011;11303;50.772;19.670;2023-01-24T05:46:50;160.85;;;53.22;;
22268;SDS011;11303;50.772;19.670;2023-01-24T05:48:51;67.45;;;21.73;;
22268;SDS011;11303;50.772;19.670;2023-01-24T05:50:57;97.65;;;31.88;;
22268;SDS011;11303;50.772;19.670;2023-01-24T05:53:02;74.85;;;23.05;;
22268;SDS011;11303;50.772;19.670;2023-01-24T05:55:04;97.70;;;32.85;;
22268;SDS011;11303;50.772;19.670;2023-01-24T05:57:06;117.70;;;33.92;;
22268;SDS011;11303;50.772;19.670;2023-01-24T05:59:08;83.22;;;24.77;;
22268;SDS011;11303;50.772;19.670;2023-01-24T06:01:15;137.00;;;42.95;;
22268;SDS011;11303;50.772;19.670;2023-01-24T06:03:19;143.63;;;41.53;;
22268;SDS011;11303;50.772;19.670;2023-01-24T06:05:21;146.05;;;44.50;;
22268;SDS011;11303;50.772;19.670;2023-01-24T06:07:23;85.43;;;27.83;;
22268;SDS011;11303;50.772;19.670;2023-01-24T06:09:24;114.90;;;34.10;;
22268;SDS011;11303;50.772;19.670;2023-01-24T06:11:26;157.43;;;43.47;;
22268;SDS011;11303;50.772;19.670;2023-01-24T06:13:28;183.63;;;50.97;;
22268;SDS011;11303;50.772;19.670;2023-01-24T06:15:30;82.57;;;26.58;;
22268;SDS011;11303;50.772;19.670;2023-01-24T06:17:32;86.88;;;27.13;;
22268;SDS011;11303;50.772;19.670;2023-01-24T06:19:33;169.68;;;43.83;;
22268;SDS011;11303;50.772;19.670;2023-01-24T06:23:48;180.52;;;46.05;;
22268;SDS011;11303;50.772;19.670;2023-01-24T06:25:50;94.32;;;28.17;;
22268;SDS011;11303;50.772;19.670;2023-01-24T06:27:52;185.88;;;49.60;;
22268;SDS011;11303;50.772;19.670;2023-01-24T06:29:53;113.50;;;34.15;;
22268;SDS011;11303;50.772;19.670;2023-01-24T06:36:57;127.22;;;34.75;;
22268;SDS011;11303;50.772;19.670;2023-01-24T06:39:12;183.43;;;54.55;;
22268;SDS011;11303;50.772;19.670;2023-01-24T06:41:16;28.20;;;13.63;;
22268;SDS011;11303;50.772;19.670;2023-01-24T06:43:18;62.72;;;20.92;;
22268;SDS011;11303;50.772;19.670;2023-01-24T06:45:20;135.05;;;35.22;;
22268;SDS011;11303;50.772;19.670;2023-01-24T06:47:23;44.97;;;16.38;;
22268;SDS011;11303;50.772;19.670;2023-01-24T06:49:26;68.85;;;23.25;;
22268;SDS011;11303;50.772;19.670;2023-01-24T06:51:27;95.82;;;27.25;;
22268;SDS011;11303;50.772;19.670;2023-01-24T06:53:29;141.43;;;35.88;;
22268;SDS011;11303;50.772;19.670;2023-01-24T06:55:30;156.35;;;37.35;;
22268;SDS011;11303;50.772;19.670;2023-01-24T06:57:32;161.48;;;52.42;;
22268;SDS011;11303;50.772;19.670;2023-01-24T06:59:34;105.35;;;30.00;;
22268;SDS011;11303;50.772;19.670;2023-01-24T07:01:35;185.57;;;42.38;;
22268;SDS011;11303;50.772;19.670;2023-01-24T07:03:37;269.33;;;70.65;;
22268;SDS011;11303;50.772;19.670;2023-01-24T07:05:39;259.20;;;64.30;;
22268;SDS011;11303;50.772;19.670;2023-01-24T07:07:40;206.20;;;50.72;;
22268;SDS011;11303;50.772;19.670;2023-01-24T07:09:42;111.20;;;34.08;;
22268;SDS011;11303;50.772;19.670;2023-01-24T07:11:43;90.00;;;25.73;;
22268;SDS011;11303;50.772;19.670;2023-01-24T07:13:45;164.73;;;42.22;;
22268;SDS011;11303;50.772;19.670;2023-01-24T07:15:46;156.80;;;37.35;;
22268;SDS011;11303;50.772;19.670;2023-01-24T07:17:48;124.47;;;33.38;;
22268;SDS011;11303;50.772;19.670;2023-01-24T07:19:50;234.23;;;51.00;;
22268;SDS011;11303;50.772;19.670;2023-01-24T07:21:52;194.88;;;47.20;;
22268;SDS011;11303;50.772;19.670;2023-01-24T07:23:55;110.82;;;29.33;;
22268;SDS011;11303;50.772;19.670;2023-01-24T07:25:58;166.57;;;40.38;;
22268;SDS011;11303;50.772;19.670;2023-01-24T07:28:00;134.48;;;32.45;;
22268;SDS011;11303;50.772;19.670;2023-01-24T07:30:03;175.90;;;37.55;;
22268;SDS011;11303;50.772;19.670;2023-01-24T07:32:05;108.18;;;29.55;;
22268;SDS011;11303;50.772;19.670;2023-01-24T07:34:07;269.02;;;56.00;;
22268;SDS011;11303;50.772;19.670;2023-01-24T07:36:12;117.57;;;32.90;;
22268;SDS011;11303;50.772;19.670;2023-01-24T07:38:15;278.08;;;58.53;;
22268;SDS011;11303;50.772;19.670;2023-01-24T07:40:17;120.18;;;34.00;;
22268;SDS011;11303;50.772;19.670;2023-01-24T07:42:18;87.65;;;23.83;;
22268;SDS011;11303;50.772;19.670;2023-01-24T07:44:20;200.70;;;40.28;;
22268;SDS011;11303;50.772;19.670;2023-01-24T07:46:21;155.73;;;33.85;;
22268;SDS011;11303;50.772;19.670;2023-01-24T07:48:23;240.90;;;48.35;;
22268;SDS011;11303;50.772;19.670;2023-01-24T07:50:25;201.25;;;45.05;;
22268;SDS011;11303;50.772;19.670;2023-01-24T07:52:27;206.35;;;43.10;;
22268;SDS011;11303;50.772;19.670;2023-01-24T07:54:29;208.43;;;42.72;;
22268;SDS011;11303;50.772;19.670;2023-01-24T07:56:30;292.88;;;59.45;;
22268;SDS011;11303;50.772;19.670;2023-01-24T07:58:32;269.92;;;48.85;;
22268;SDS011;11303;50.772;19.670;2023-01-24T08:00:33;97.53;;;25.40;;
22268;SDS011;11303;50.772;19.670;2023-01-24T08:02:35;208.63;;;43.08;;
22268;SDS011;11303;50.772;19.670;2023-01-24T08:04:37;190.30;;;37.75;;
22268;SDS011;11303;50.772;19.670;2023-01-24T08:06:39;202.27;;;40.35;;
22268;SDS011;11303;50.772;19.670;2023-01-24T08:09:03;324.60;;;57.53;;
22268;SDS011;11303;50.772;19.670;2023-01-24T08:11:05;122.00;;;31.02;;
22268;SDS011;11303;50.772;19.670;2023-01-24T08:13:07;301.35;;;56.72;;
22268;SDS011;11303;50.772;19.670;2023-01-24T08:15:09;166.23;;;41.40;;
22268;SDS011;11303;50.772;19.670;2023-01-24T08:17:11;372.73;;;75.00;;
22268;SDS011;11303;50.772;19.670;2023-01-24T08:19:13;279.40;;;51.70;;
22268;SDS011;11303;50.772;19.670;2023-01-24T08:21:35;309.50;;;67.55;;
22268;SDS011;11303;50.772;19.670;2023-01-24T08:23:37;55.88;;;17.27;;
22268;SDS011;11303;50.772;19.670;2023-01-24T08:25:38;238.13;;;44.85;;
22268;SDS011;11303;50.772;19.670;2023-01-24T08:27:40;137.30;;;32.85;;
22268;SDS011;11303;50.772;19.670;2023-01-24T08:29:43;183.93;;;37.95;;
22268;SDS011;11303;50.772;19.670;2023-01-24T08:31:44;252.75;;;51.25;;
22268;SDS011;11303;50.772;19.670;2023-01-24T08:33:46;351.50;;;72.82;;
22268;SDS011;11303;50.772;19.670;2023-01-24T08:35:48;429.50;;;117.43;;
22268;SDS011;11303;50.772;19.670;2023-01-24T08:37:49;472.15;;;104.82;;
22268;SDS011;11303;50.772;19.670;2023-01-24T08:39:51;413.70;;;100.15;;
22268;SDS011;11303;50.772;19.670;2023-01-24T08:41:52;295.65;;;58.13;;
22268;SDS011;11303;50.772;19.670;2023-01-24T08:43:54;243.18;;;52.20;;
22268;SDS011;11303;50.772;19.670;2023-01-24T08:45:56;409.17;;;111.95;;
22268;SDS011;11303;50.772;19.670;2023-01-24T08:47:57;366.20;;;107.78;;
22268;SDS011;11303;50.772;19.670;2023-01-24T08:49:59;199.27;;;46.45;;
22268;SDS011;11303;50.772;19.670;2023-01-24T08:52:00;321.40;;;60.10;;
22268;SDS011;11303;50.772;19.670;2023-01-24T08:54:03;222.00;;;41.95;;
22268;SDS011;11303;50.772;19.670;2023-01-24T08:56:06;513.92;;;112.03;;
22268;SDS011;11303;50.772;19.670;2023-01-24T08:58:08;346.65;;;70.65;;
22268;SDS011;11303;50.772;19.670;2023-01-24T09:00:10;340.75;;;79.15;;
22268;SDS011;11303;50.772;19.670;2023-01-24T09:02:12;387.63;;;85.82;;
22268;SDS011;11303;50.772;19.670;2023-01-24T09:04:15;290.55;;;57.38;;
22268;SDS011;11303;50.772;19.670;2023-01-24T09:06:16;240.88;;;56.47;;
22268;SDS011;11303;50.772;19.670;2023-01-24T09:08:18;318.33;;;82.03;;
22268;SDS011;11303;50.772;19.670;2023-01-24T09:10:20;280.30;;;67.15;;
22268;SDS011;11303;50.772;19.670;2023-01-24T09:12:21;303.13;;;84.97;;
22268;SDS011;11303;50.772;19.670;2023-01-24T09:14:23;268.73;;;61.13;;
22268;SDS011;11303;50.772;19.670;2023-01-24T09:16:24;218.10;;;51.20;;
22268;SDS011;11303;50.772;19.670;2023-01-24T09:18:28;192.20;;;42.13;;
22268;SDS011;11303;50.772;19.670;2023-01-24T09:20:30;212.38;;;47.25;;
22268;SDS011;11303;50.772;19.670;2023-01-24T09:22:32;225.48;;;49.42;;
22268;SDS011;11303;50.772;19.670;2023-01-24T09:24:33;160.43;;;38.30;;
22268;SDS011;11303;50.772;19.670;2023-01-24T09:26:35;179.38;;;40.65;;
22268;SDS011;11303;50.772;19.670;2023-01-24T09:28:37;196.18;;;48.60;;
22268;SDS011;11303;50.772;19.670;2023-01-24T09:30:38;204.80;;;52.85;;
22268;SDS011;11303;50.772;19.670;2023-01-24T09:32:40;204.93;;;50.17;;
22268;SDS011;11303;50.772;19.670;2023-01-24T09:34:44;205.77;;;53.28;;
22268;SDS011;11303;50.772;19.670;2023-01-24T09:36:49;216.43;;;56.45;;
22268;SDS011;11303;50.772;19.670;2023-01-24T09:38:51;164.23;;;44.38;;
22268;SDS011;11303;50.772;19.670;2023-01-24T09:49:49;196.45;;;49.65;;
22268;SDS011;11303;50.772;19.670;2023-01-24T09:51:56;172.10;;;44.92;;
22268;SDS011;11303;50.772;19.670;2023-01-24T09:53:59;179.02;;;45.17;;
22268;SDS011;11303;50.772;19.670;2023-01-24T09:56:03;154.25;;;41.95;;
22268;SDS011;11303;50.772;19.670;2023-01-24T10:00:38;164.70;;;42.20;;
22268;SDS011;11303;50.772;19.670;2023-01-24T10:02:40;126.25;;;34.63;;
22268;SDS011;11303;50.772;19.670;2023-01-24T10:04:44;155.50;;;38.70;;
22268;SDS011;11303;50.772;19.670;2023-01-24T10:07:11;144.63;;;35.05;;
22268;SDS011;11303;50.772;19.670;2023-01-24T10:09:27;183.13;;;44.35;;
22268;SDS011;11303;50.772;19.670;2023-01-24T10:11:42;123.10;;;29.60;;
22268;SDS011;11303;50.772;19.670;2023-01-24T10:23:15;142.70;;;39.83;;
22268;SDS011;11303;50.772;19.670;2023-01-24T10:27:52;166.27;;;46.70;;
22268;SDS011;11303;50.772;19.670;2023-01-24T10:30:00;166.80;;;47.17;;
22268;SDS011;11303;50.772;19.670;2023-01-24T10:32:14;151.30;;;41.05;;
22268;SDS011;11303;50.772;19.670;2023-01-24T10:34:34;156.73;;;48.38;;
22268;SDS011;11303;50.772;19.670;2023-01-24T10:36:49;160.57;;;51.72;;
22268;SDS011;11303;50.772;19.670;2023-01-24T10:38:55;185.93;;;62.97;;
22268;SDS011;11303;50.772;19.670;2023-01-24T10:43:36;137.40;;;42.38;;
22268;SDS011;11303;50.772;19.670;2023-01-24T10:47:56;196.50;;;59.42;;
22268;SDS011;11303;50.772;19.670;2023-01-24T10:50:03;438.55;;;179.63;;
22268;SDS011;11303;50.772;19.670;2023-01-24T10:52:09;200.40;;;73.65;;
22268;SDS011;11303;50.772;19.670;2023-01-24T10:54:21;228.73;;;78.38;;
22268;SDS011;11303;50.772;19.670;2023-01-24T10:56:26;200.45;;;66.18;;
22268;SDS011;11303;50.772;19.670;2023-01-24T10:59:13;138.00;;;40.45;;
22268;SDS011;11303;50.772;19.670;2023-01-24T11:01:19;144.40;;;40.53;;
22268;SDS011;11303;50.772;19.670;2023-01-24T11:03:23;156.93;;;44.90;;
22268;SDS011;11303;50.772;19.670;2023-01-24T11:05:36;178.48;;;48.63;;
22268;SDS011;11303;50.772;19.670;2023-01-24T11:07:45;152.38;;;47.45;;
22268;SDS011;11303;50.772;19.670;2023-01-24T11:09:57;199.18;;;60.10;;
22268;SDS011;11303;50.772;19.670;2023-01-24T11:12:00;159.35;;;47.33;;
22268;SDS011;11303;50.772;19.670;2023-01-24T11:14:02;128.05;;;38.28;;
22268;SDS011;11303;50.772;19.670;2023-01-24T11:18:29;133.77;;;39.90;;
22268;SDS011;11303;50.772;19.670;2023-01-24T11:20:33;161.32;;;53.65;;
22268;SDS011;11303;50.772;19.670;2023-01-24T11:22:36;176.40;;;64.03;;
22268;SDS011;11303;50.772;19.670;2023-01-24T11:24:44;145.23;;;43.85;;
22268;SDS011;11303;50.772;19.670;2023-01-24T11:26:57;121.88;;;38.92;;
22268;SDS011;11303;50.772;19.670;2023-01-24T11:29:05;122.75;;;40.30;;
22268;SDS011;11303;50.772;19.670;2023-01-24T11:31:38;141.65;;;45.35;;
22268;SDS011;11303;50.772;19.670;2023-01-24T11:36:16;168.05;;;67.30;;
22268;SDS011;11303;50.772;19.670;2023-01-24T11:38:29;156.10;;;58.55;;
22268;SDS011;11303;50.772;19.670;2023-01-24T11:40:42;133.13;;;50.22;;
22268;SDS011;11303;50.772;19.670;2023-01-24T11:47:22;87.05;;;37.60;;
22268;SDS011;11303;50.772;19.670;2023-01-24T11:58:40;124.22;;;55.78;;
22268;SDS011;11303;50.772;19.670;2023-01-24T12:00:55;84.90;;;40.47;;
22268;SDS011;11303;50.772;19.670;2023-01-24T12:08:09;67.25;;;36.15;;
22268;SDS011;11303;50.772;19.670;2023-01-24T12:12:34;59.53;;;29.73;;
22268;SDS011;11303;50.772;19.670;2023-01-24T12:14:59;51.30;;;28.95;;
22268;SDS011;11303;50.772;19.670;2023-01-24T12:22:37;51.47;;;30.58;;
22268;SDS011;11303;50.772;19.670;2023-01-24T12:24:42;41.75;;;26.35;;
22268;SDS011;11303;50.772;19.670;2023-01-24T12:26:51;57.55;;;37.47;;
22268;SDS011;11303;50.772;19.670;2023-01-24T12:31:32;45.67;;;28.10;;
22268;SDS011;11303;50.772;19.670;2023-01-24T12:33:49;71.45;;;39.67;;
22268;SDS011;11303;50.772;19.670;2023-01-24T12:35:57;99.10;;;51.58;;
22268;SDS011;11303;50.772;19.670;2023-01-24T12:38:11;59.75;;;33.38;;
22268;SDS011;11303;50.772;19.670;2023-01-24T12:41:03;55.00;;;27.23;;
22268;SDS011;11303;50.772;19.670;2023-01-24T12:43:06;80.38;;;41.97;;
22268;SDS011;11303;50.772;19.670;2023-01-24T12:45:34;69.85;;;35.40;;
22268;SDS011;11303;50.772;19.670;2023-01-24T12:47:50;61.35;;;33.75;;
22268;SDS011;11303;50.772;19.670;2023-01-24T12:52:23;57.25;;;28.73;;
22268;SDS011;11303;50.772;19.670;2023-01-24T12:54:32;49.92;;;26.63;;
22268;SDS011;11303;50.772;19.670;2023-01-24T12:56:52;56.20;;;30.48;;
22268;SDS011;11303;50.772;19.670;2023-01-24T12:59:00;81.03;;;37.65;;
22268;SDS011;11303;50.772;19.670;2023-01-24T13:05:45;36.90;;;21.08;;
22268;SDS011;11303;50.772;19.670;2023-01-24T13:12:23;53.70;;;26.77;;
22268;SDS011;11303;50.772;19.670;2023-01-24T13:14:37;45.53;;;23.35;;
22268;SDS011;11303;50.772;19.670;2023-01-24T13:17:04;44.80;;;21.92;;